sensor_id;sensor_type;location;lat;lon;timestamp;pressure;altitude;pressure_sealevel;temperature;humidity
68654;BME280;55636;51.108;13.622;2022-10-17T00:00:24;101013.50;;;15.04;70.36
68654;BME280;55636;51.108;13.622;2022-10-17T00:01:26;101006.53;;;15.02;70.80
68654;BME280;55636;51.108;13.622;2022-10-17T00:02:28;101007.63;;;15.01;70.84
68654;BME280;55636;51.108;13.622;2022-10-17T00:03:32;101013.19;;;15.01;70.61
68654;BME280;55636;51.108;13.622;2022-10-17T00:04:34;101015.16;;;15.00;70.48
68654;BME280;55636;51.108;13.622;2022-10-17T00:05:45;101007.91;;;14.99;70.47
68654;BME280;55636;51.108;13.622;2022-10-17T00:06:47;101013.47;;;14.99;70.55
68654;BME280;55636;51.108;13.622;2022-10-17T00:07:50;101016.25;;;14.99;70.72
68654;BME280;55636;51.108;13.622;2022-10-17T00:08:53;101012.91;;;14.97;70.80
68654;BME280;55636;51.108;13.622;2022-10-17T00:09:55;101026.81;;;14.97;70.53
68654;BME280;55636;51.108;13.622;2022-10-17T00:11:03;101020.69;;;14.95;70.96
68654;BME280;55636;51.108;13.622;2022-10-17T00:12:05;101020.69;;;14.95;70.61
68654;BME280;55636;51.108;13.622;2022-10-17T00:13:09;101014.00;;;14.96;70.46
68654;BME280;55636;51.108;13.622;2022-10-17T00:14:11;101023.47;;;14.95;70.76
68654;BME280;55636;51.108;13.622;2022-10-17T00:15:16;101024.31;;;14.95;70.45
68654;BME280;55636;51.108;13.622;2022-10-17T00:16:34;101016.25;;;14.94;70.52
68654;BME280;55636;51.108;13.622;2022-10-17T00:17:40;101014.84;;;14.91;70.86
68654;BME280;55636;51.108;13.622;2022-10-17T00:18:43;101015.13;;;14.90;70.78
68654;BME280;55636;51.108;13.622;2022-10-17T00:19:45;101012.34;;;14.90;70.70
68654;BME280;55636;51.108;13.622;2022-10-17T00:20:47;101015.13;;;14.90;70.73
68654;BME280;55636;51.108;13.622;2022-10-17T00:21:54;101019.81;;;14.89;70.96
68654;BME280;55636;51.108;13.622;2022-10-17T00:22:57;101014.53;;;14.88;70.84
68654;BME280;55636;51.108;13.622;2022-10-17T00:23:59;101012.03;;;14.86;70.72
68654;BME280;55636;51.108;13.622;2022-10-17T00:25:02;101014.81;;;14.86;70.91
68654;BME280;55636;51.108;13.622;2022-10-17T00:26:05;101013.16;;;14.85;70.73
68654;BME280;55636;51.108;13.622;2022-10-17T00:27:07;101017.88;;;14.85;71.00
68654;BME280;55636;51.108;13.622;2022-10-17T00:28:13;101020.09;;;14.82;71.05
68654;BME280;55636;51.108;13.622;2022-10-17T00:29:16;101014.53;;;14.82;70.72
68654;BME280;55636;51.108;13.622;2022-10-17T00:30:21;101023.16;;;14.81;70.94
68654;BME280;55636;51.108;13.622;2022-10-17T00:31:23;101031.50;;;14.81;70.82
68654;BME280;55636;51.108;13.622;2022-10-17T00:32:26;101026.75;;;14.81;70.76
68654;BME280;55636;51.108;13.622;2022-10-17T00:33:29;101036.47;;;14.79;71.02
68654;BME280;55636;51.108;13.622;2022-10-17T00:34:32;101037.34;;;14.79;70.70
68654;BME280;55636;51.108;13.622;2022-10-17T00:35:34;101030.91;;;14.79;70.96
68654;BME280;55636;51.108;13.622;2022-10-17T00:36:36;101032.06;;;14.78;70.70
68654;BME280;55636;51.108;13.622;2022-10-17T00:37:38;101030.09;;;14.78;70.82
68654;BME280;55636;51.108;13.622;2022-10-17T00:38:43;101033.44;;;14.75;70.84
68654;BME280;55636;51.108;13.622;2022-10-17T00:39:45;101033.44;;;14.75;70.78
68654;BME280;55636;51.108;13.622;2022-10-17T00:40:47;101034.53;;;14.74;71.03
68654;BME280;55636;51.108;13.622;2022-10-17T00:41:50;101026.19;;;14.74;71.07
68654;BME280;55636;51.108;13.622;2022-10-17T00:42:53;101032.84;;;14.73;70.82
68654;BME280;55636;51.108;13.622;2022-10-17T00:43:58;101030.06;;;14.73;70.77
68654;BME280;55636;51.108;13.622;2022-10-17T00:45:24;101024.53;;;14.73;70.82
68654;BME280;55636;51.108;13.622;2022-10-17T00:46:29;101025.59;;;14.72;70.75
68654;BME280;55636;51.108;13.622;2022-10-17T00:47:32;101026.69;;;14.71;70.97
68654;BME280;55636;51.108;13.622;2022-10-17T00:48:36;101019.47;;;14.70;70.99
68654;BME280;55636;51.108;13.622;2022-10-17T00:49:39;101017.81;;;14.69;71.05
68654;BME280;55636;51.108;13.622;2022-10-17T00:50:45;101029.19;;;14.68;70.78
68654;BME280;55636;51.108;13.622;2022-10-17T00:51:55;101012.50;;;14.68;70.99
68654;BME280;55636;51.108;13.622;2022-10-17T00:53:03;101017.50;;;14.65;71.01
68654;BME280;55636;51.108;13.622;2022-10-17T00:54:06;101013.91;;;14.65;70.98
68654;BME280;55636;51.108;13.622;2022-10-17T00:55:23;101014.72;;;14.65;70.87
68654;BME280;55636;51.108;13.622;2022-10-17T00:56:26;101013.31;;;14.63;70.81
68654;BME280;55636;51.108;13.622;2022-10-17T00:57:30;101014.41;;;14.62;70.95
68654;BME280;55636;51.108;13.622;2022-10-17T00:58:33;101017.78;;;14.64;70.78
68654;BME280;55636;51.108;13.622;2022-10-17T00:59:37;101013.31;;;14.63;70.96
68654;BME280;55636;51.108;13.622;2022-10-17T01:00:45;101008.84;;;14.62;70.63
68654;BME280;55636;51.108;13.622;2022-10-17T01:02:08;101015.56;;;14.61;70.84
68654;BME280;55636;51.108;13.622;2022-10-17T01:03:10;101015.56;;;14.61;70.86
68654;BME280;55636;51.108;13.622;2022-10-17T01:04:17;101014.97;;;14.59;70.99
68654;BME280;55636;51.108;13.622;2022-10-17T01:05:20;101020.53;;;14.59;70.82
68654;BME280;55636;51.108;13.622;2022-10-17T01:06:22;101021.63;;;14.58;70.74
68654;BME280;55636;51.108;13.622;2022-10-17T01:07:27;101005.50;;;14.55;70.80
68654;BME280;55636;51.108;13.622;2022-10-17T01:08:37;101015.78;;;14.54;70.88
68654;BME280;55636;51.108;13.622;2022-10-17T01:09:44;101016.06;;;14.53;70.93
68654;BME280;55636;51.108;13.622;2022-10-17T01:14:00;101016.63;;;14.49;71.26
68654;BME280;55636;51.108;13.622;2022-10-17T01:16:38;101018.25;;;14.45;70.90
68654;BME280;55636;51.108;13.622;2022-10-17T01:24:47;101009.88;;;14.35;71.31
68654;BME280;55636;51.108;13.622;2022-10-17T01:26:15;101017.63;;;14.33;71.54
68654;BME280;55636;51.108;13.622;2022-10-17T01:27:29;101019.00;;;14.30;71.58
68654;BME280;55636;51.108;13.622;2022-10-17T01:31:36;101020.66;;;14.26;71.46
68654;BME280;55636;51.108;13.622;2022-10-17T01:32:48;101021.22;;;14.23;71.78
68654;BME280;55636;51.108;13.622;2022-10-17T01:35:30;101021.47;;;14.22;71.61
68654;BME280;55636;51.108;13.622;2022-10-17T01:36:39;101028.97;;;14.21;71.51
68654;BME280;55636;51.108;13.622;2022-10-17T01:40:48;101019.78;;;14.15;71.64
68654;BME280;55636;51.108;13.622;2022-10-17T01:42:12;101014.22;;;14.15;71.74
68654;BME280;55636;51.108;13.622;2022-10-17T01:43:24;101020.88;;;14.14;71.67
68654;BME280;55636;51.108;13.622;2022-10-17T01:45:02;101011.97;;;14.12;72.08
68654;BME280;55636;51.108;13.622;2022-10-17T01:46:12;101013.91;;;14.12;72.14
68654;BME280;55636;51.108;13.622;2022-10-17T01:47:20;101021.41;;;14.11;72.13
68654;BME280;55636;51.108;13.622;2022-10-17T01:48:32;101008.63;;;14.10;71.82
68654;BME280;55636;51.108;13.622;2022-10-17T01:49:39;101010.00;;;14.08;72.14
68654;BME280;55636;51.108;13.622;2022-10-17T01:50:53;101015.84;;;14.06;72.32
68654;BME280;55636;51.108;13.622;2022-10-17T01:52:03;101014.97;;;14.06;72.29
68654;BME280;55636;51.108;13.622;2022-10-17T01:53:11;101010.50;;;14.05;72.15
68654;BME280;55636;51.108;13.622;2022-10-17T01:54:38;101005.22;;;14.03;72.25
68654;BME280;55636;51.108;13.622;2022-10-17T01:55:44;101005.22;;;14.03;72.06
68654;BME280;55636;51.108;13.622;2022-10-17T01:56:52;101006.34;;;14.02;72.30
68654;BME280;55636;51.108;13.622;2022-10-17T01:58:01;101003.56;;;14.02;72.18
68654;BME280;55636;51.108;13.622;2022-10-17T01:59:13;101006.34;;;14.02;72.21
68654;BME280;55636;51.108;13.622;2022-10-17T02:00:20;101002.19;;;13.99;72.52
68654;BME280;55636;51.108;13.622;2022-10-17T02:01:28;101005.19;;;13.98;72.35
68654;BME280;55636;51.108;13.622;2022-10-17T02:02:34;101008.84;;;13.98;72.44
68654;BME280;55636;51.108;13.622;2022-10-17T02:03:39;101006.34;;;13.97;72.47
68654;BME280;55636;51.108;13.622;2022-10-17T02:04:43;101007.97;;;13.98;72.49
68654;BME280;55636;51.108;13.622;2022-10-17T02:05:46;101007.44;;;13.96;72.69
68654;BME280;55636;51.108;13.622;2022-10-17T02:06:49;101003.78;;;13.95;72.52
68654;BME280;55636;51.108;13.622;2022-10-17T02:07:53;101006.56;;;13.95;72.59
68654;BME280;55636;51.108;13.622;2022-10-17T02:08:56;100999.38;;;13.94;72.67
68654;BME280;55636;51.108;13.622;2022-10-17T02:09:58;101000.19;;;13.95;72.50
68654;BME280;55636;51.108;13.622;2022-10-17T02:11:06;101004.94;;;13.94;72.88
68654;BME280;55636;51.108;13.622;2022-10-17T02:12:26;101007.69;;;13.94;72.77
68654;BME280;55636;51.108;13.622;2022-10-17T02:16:55;100987.13;;;13.95;72.57
68654;BME280;55636;51.108;13.622;2022-10-17T02:20:36;100991.88;;;13.95;72.61
68654;BME280;55636;51.108;13.622;2022-10-17T02:26:08;100991.56;;;13.91;72.77
68654;BME280;55636;51.108;13.622;2022-10-17T02:27:16;100996.28;;;13.91;72.64
68654;BME280;55636;51.108;13.622;2022-10-17T02:28:34;100999.06;;;13.91;72.74
68654;BME280;55636;51.108;13.622;2022-10-17T02:29:46;101001.84;;;13.91;72.68
68654;BME280;55636;51.108;13.622;2022-10-17T02:30:54;101002.94;;;13.90;72.77
68654;BME280;55636;51.108;13.622;2022-10-17T02:32:06;101001.84;;;13.91;72.49
68654;BME280;55636;51.108;13.622;2022-10-17T02:33:12;100994.59;;;13.90;72.62
68654;BME280;55636;51.108;13.622;2022-10-17T02:35:21;100989.06;;;13.90;72.42
68654;BME280;55636;51.108;13.622;2022-10-17T02:36:29;100993.78;;;13.89;72.28
68654;BME280;55636;51.108;13.622;2022-10-17T02:37:33;101002.34;;;13.88;72.60
68654;BME280;55636;51.108;13.622;2022-10-17T02:38:38;100999.34;;;13.89;72.59
68654;BME280;55636;51.108;13.622;2022-10-17T02:39:41;100999.34;;;13.89;72.35
68654;BME280;55636;51.108;13.622;2022-10-17T02:40:48;100995.72;;;13.89;72.46
68654;BME280;55636;51.108;13.622;2022-10-17T02:41:53;100999.56;;;13.88;72.40
68654;BME280;55636;51.108;13.622;2022-10-17T02:42:58;100996.81;;;13.88;72.67
68654;BME280;55636;51.108;13.622;2022-10-17T02:44:04;101009.88;;;13.87;72.51
68654;BME280;55636;51.108;13.622;2022-10-17T02:45:07;101004.59;;;13.86;72.69
68654;BME280;55636;51.108;13.622;2022-10-17T02:46:13;101002.91;;;13.85;72.34
68654;BME280;55636;51.108;13.622;2022-10-17T02:48:51;101001.22;;;13.83;72.46
68654;BME280;55636;51.108;13.622;2022-10-17T02:49:55;101005.09;;;13.82;72.27
68654;BME280;55636;51.108;13.622;2022-10-17T02:52:34;101002.59;;;13.81;72.67
68654;BME280;55636;51.108;13.622;2022-10-17T02:53:53;101007.31;;;13.80;72.27
68654;BME280;55636;51.108;13.622;2022-10-17T02:56:19;101009.25;;;13.80;72.68
68654;BME280;55636;51.108;13.622;2022-10-17T02:57:27;101006.47;;;13.80;72.47
68654;BME280;55636;51.108;13.622;2022-10-17T02:58:32;101003.97;;;13.78;72.57
68654;BME280;55636;51.108;13.622;2022-10-17T02:59:37;101003.97;;;13.78;72.47
68654;BME280;55636;51.108;13.622;2022-10-17T03:00:42;101008.09;;;13.76;72.52
68654;BME280;55636;51.108;13.622;2022-10-17T03:01:45;101009.78;;;13.77;72.38
68654;BME280;55636;51.108;13.622;2022-10-17T03:02:49;101006.47;;;13.75;72.61
68654;BME280;55636;51.108;13.622;2022-10-17T03:04:10;101004.50;;;13.75;72.77
68654;BME280;55636;51.108;13.622;2022-10-17T03:05:25;101005.59;;;13.74;72.41
68654;BME280;55636;51.108;13.622;2022-10-17T03:06:27;101008.38;;;13.74;72.41
68654;BME280;55636;51.108;13.622;2022-10-17T03:07:29;101009.47;;;13.73;72.52
68654;BME280;55636;51.108;13.622;2022-10-17T03:08:32;101008.66;;;13.73;72.71
68654;BME280;55636;51.108;13.622;2022-10-17T03:09:34;101002.28;;;13.72;72.43
68654;BME280;55636;51.108;13.622;2022-10-17T03:10:37;101010.03;;;13.70;72.75
68654;BME280;55636;51.108;13.622;2022-10-17T03:11:40;101009.16;;;13.70;72.72
68654;BME280;55636;51.108;13.622;2022-10-17T03:12:43;101000.84;;;13.70;72.78
68654;BME280;55636;51.108;13.622;2022-10-17T03:13:46;101004.72;;;13.69;72.88
68654;BME280;55636;51.108;13.622;2022-10-17T03:14:48;101003.28;;;13.66;72.56
68654;BME280;55636;51.108;13.622;2022-10-17T03:15:52;101012.44;;;13.66;72.93
68654;BME280;55636;51.108;13.622;2022-10-17T03:16:54;101002.44;;;13.65;72.75
68654;BME280;55636;51.108;13.622;2022-10-17T03:17:57;101008.84;;;13.66;72.76
68654;BME280;55636;51.108;13.622;2022-10-17T03:18:59;101004.13;;;13.66;72.92
68654;BME280;55636;51.108;13.622;2022-10-17T03:20:02;101004.41;;;13.65;72.83
68654;BME280;55636;51.108;13.622;2022-10-17T03:21:05;101006.06;;;13.66;72.59
68654;BME280;55636;51.108;13.622;2022-10-17T03:22:07;101002.44;;;13.65;72.71
68654;BME280;55636;51.108;13.622;2022-10-17T03:23:11;101007.16;;;13.65;72.87
68654;BME280;55636;51.108;13.622;2022-10-17T03:24:14;101012.72;;;13.65;72.82
68654;BME280;55636;51.108;13.622;2022-10-17T03:25:16;101013.81;;;13.64;72.71
68654;BME280;55636;51.108;13.622;2022-10-17T03:26:22;101009.94;;;13.65;72.90
68654;BME280;55636;51.108;13.622;2022-10-17T03:27:24;101009.34;;;13.63;72.83
68654;BME280;55636;51.108;13.622;2022-10-17T03:28:27;101014.66;;;13.64;72.61
68654;BME280;55636;51.108;13.622;2022-10-17T03:29:29;101013.81;;;13.64;72.75
68654;BME280;55636;51.108;13.622;2022-10-17T03:30:32;101009.34;;;13.63;72.85
68654;BME280;55636;51.108;13.622;2022-10-17T03:31:34;101009.63;;;13.61;72.70
68654;BME280;55636;51.108;13.622;2022-10-17T03:32:38;101009.34;;;13.63;72.90
68654;BME280;55636;51.108;13.622;2022-10-17T03:33:40;101014.91;;;13.63;72.84
68654;BME280;55636;51.108;13.622;2022-10-17T03:34:43;101014.09;;;13.62;72.76
68654;BME280;55636;51.108;13.622;2022-10-17T03:35:46;101018.53;;;13.63;72.62
68654;BME280;55636;51.108;13.622;2022-10-17T03:36:48;101018.81;;;13.62;72.66
68654;BME280;55636;51.108;13.622;2022-10-17T03:37:54;101025.19;;;13.62;72.90
68654;BME280;55636;51.108;13.622;2022-10-17T03:38:57;101019.91;;;13.61;73.04
68654;BME280;55636;51.108;13.622;2022-10-17T03:39:59;101016.88;;;13.62;72.86
68654;BME280;55636;51.108;13.622;2022-10-17T03:41:03;101023.50;;;13.61;72.86
68654;BME280;55636;51.108;13.622;2022-10-17T03:42:06;101024.59;;;13.60;72.97
68654;BME280;55636;51.108;13.622;2022-10-17T03:43:09;101022.38;;;13.57;73.06
68654;BME280;55636;51.108;13.622;2022-10-17T03:44:14;101025.97;;;13.58;72.89
68654;BME280;55636;51.108;13.622;2022-10-17T03:45:16;101023.19;;;13.58;72.91
68654;BME280;55636;51.108;13.622;2022-10-17T03:46:20;101025.16;;;13.57;72.78
68654;BME280;55636;51.108;13.622;2022-10-17T03:47:22;101018.19;;;13.55;73.17
68654;BME280;55636;51.108;13.622;2022-10-17T03:48:26;101024.31;;;13.57;73.08
68654;BME280;55636;51.108;13.622;2022-10-17T03:49:29;101025.41;;;13.56;73.06
68654;BME280;55636;51.108;13.622;2022-10-17T03:50:31;101024.59;;;13.55;73.28
68654;BME280;55636;51.108;13.622;2022-10-17T03:51:34;101025.41;;;13.56;73.32
68654;BME280;55636;51.108;13.622;2022-10-17T03:52:45;101022.66;;;13.56;73.24
68654;BME280;55636;51.108;13.622;2022-10-17T03:53:47;101021.81;;;13.55;73.18
68654;BME280;55636;51.108;13.622;2022-10-17T03:54:50;101031.78;;;13.56;73.19
68654;BME280;55636;51.108;13.622;2022-10-17T03:55:53;101027.59;;;13.54;73.35
68654;BME280;55636;51.108;13.622;2022-10-17T03:56:55;101021.81;;;13.55;73.27
68654;BME280;55636;51.108;13.622;2022-10-17T03:58:18;101036.78;;;13.54;73.35
68654;BME280;55636;51.108;13.622;2022-10-17T03:59:20;101034.00;;;13.54;73.07
68654;BME280;55636;51.108;13.622;2022-10-17T04:00:34;101038.72;;;13.54;73.46
68654;BME280;55636;51.108;13.622;2022-10-17T04:01:37;101024.84;;;13.54;73.10
68654;BME280;55636;51.108;13.622;2022-10-17T04:02:39;101032.34;;;13.53;73.38
68654;BME280;55636;51.108;13.622;2022-10-17T04:03:52;101030.66;;;13.52;73.34
68654;BME280;55636;51.108;13.622;2022-10-17T04:04:55;101033.44;;;13.52;73.27
68654;BME280;55636;51.108;13.622;2022-10-17T04:06:02;101038.97;;;13.52;73.24
68654;BME280;55636;51.108;13.622;2022-10-17T04:07:06;101040.94;;;13.52;73.31
68654;BME280;55636;51.108;13.622;2022-10-17T04:08:12;101033.97;;;13.49;73.59
68654;BME280;55636;51.108;13.622;2022-10-17T04:09:32;101045.91;;;13.49;73.51
68654;BME280;55636;51.108;13.622;2022-10-17T04:10:41;101048.69;;;13.49;73.46
68654;BME280;55636;51.108;13.622;2022-10-17T04:11:43;101045.63;;;13.51;73.35
68654;BME280;55636;51.108;13.622;2022-10-17T04:12:46;101042.84;;;13.51;73.33
68654;BME280;55636;51.108;13.622;2022-10-17T04:13:53;101042.03;;;13.50;73.45
68654;BME280;55636;51.108;13.622;2022-10-17T04:14:57;101046.75;;;13.50;73.55
68654;BME280;55636;51.108;13.622;2022-10-17T04:16:03;101043.13;;;13.49;73.61
68654;BME280;55636;51.108;13.622;2022-10-17T04:17:06;101045.91;;;13.49;73.64
68654;BME280;55636;51.108;13.622;2022-10-17T04:18:09;101039.53;;;13.49;73.51
68654;BME280;55636;51.108;13.622;2022-10-17T04:19:12;101047.25;;;13.47;73.75
68654;BME280;55636;51.108;13.622;2022-10-17T04:20:19;101038.94;;;13.47;73.59
68654;BME280;55636;51.108;13.622;2022-10-17T04:21:23;101052.53;;;13.48;73.66
68654;BME280;55636;51.108;13.622;2022-10-17T04:22:26;101044.47;;;13.47;73.80
68654;BME280;55636;51.108;13.622;2022-10-17T04:23:29;101041.72;;;13.47;73.62
68654;BME280;55636;51.108;13.622;2022-10-17T04:24:37;101048.13;;;13.47;73.90
68654;BME280;55636;51.108;13.622;2022-10-17T04:25:42;101050.63;;;13.49;73.74
68654;BME280;55636;51.108;13.622;2022-10-17T04:26:48;101047.84;;;13.49;73.50
68654;BME280;55636;51.108;13.622;2022-10-17T04:27:51;101040.63;;;13.48;73.42
68654;BME280;55636;51.108;13.622;2022-10-17T04:28:53;101052.53;;;13.48;73.70
68654;BME280;55636;51.108;13.622;2022-10-17T04:29:55;101049.75;;;13.48;73.50
68654;BME280;55636;51.108;13.622;2022-10-17T04:31:03;101048.94;;;13.48;73.40
68654;BME280;55636;51.108;13.622;2022-10-17T04:32:12;101050.88;;;13.47;73.59
68654;BME280;55636;51.108;13.622;2022-10-17T04:33:24;101050.03;;;13.47;73.64
68654;BME280;55636;51.108;13.622;2022-10-17T04:34:26;101047.25;;;13.47;73.82
68654;BME280;55636;51.108;13.622;2022-10-17T04:35:29;101051.72;;;13.48;73.56
68654;BME280;55636;51.108;13.622;2022-10-17T04:36:36;101062.00;;;13.47;73.68
68654;BME280;55636;51.108;13.622;2022-10-17T04:37:38;101053.66;;;13.47;73.77
68654;BME280;55636;51.108;13.622;2022-10-17T04:38:47;101051.13;;;13.46;73.63
68654;BME280;55636;51.108;13.622;2022-10-17T04:39:49;101055.59;;;13.47;73.98
68654;BME280;55636;51.108;13.622;2022-10-17T04:40:51;101046.44;;;13.46;73.61
68654;BME280;55636;51.108;13.622;2022-10-17T04:41:53;101055.31;;;13.48;73.78
68654;BME280;55636;51.108;13.622;2022-10-17T04:42:57;101052.81;;;13.47;73.55
68654;BME280;55636;51.108;13.622;2022-10-17T04:44:09;101050.03;;;13.47;73.78
68654;BME280;55636;51.108;13.622;2022-10-17T04:45:15;101056.44;;;13.47;73.67
68654;BME280;55636;51.108;13.622;2022-10-17T04:46:17;101056.44;;;13.47;73.62
68654;BME280;55636;51.108;13.622;2022-10-17T04:47:20;101058.09;;;13.48;73.91
68654;BME280;55636;51.108;13.622;2022-10-17T04:48:23;101057.28;;;13.48;73.77
68654;BME280;55636;51.108;13.622;2022-10-17T04:49:25;101060.03;;;13.48;73.87
68654;BME280;55636;51.108;13.622;2022-10-17T04:50:33;101064.78;;;13.47;74.03
68654;BME280;55636;51.108;13.622;2022-10-17T04:51:54;101054.50;;;13.48;73.85
68654;BME280;55636;51.108;13.622;2022-10-17T04:53:01;101069.19;;;13.48;73.89
68654;BME280;55636;51.108;13.622;2022-10-17T04:54:04;101067.28;;;13.49;73.79
68654;BME280;55636;51.108;13.622;2022-10-17T04:55:08;101068.97;;;13.50;73.97
68654;BME280;55636;51.108;13.622;2022-10-17T04:56:13;101066.19;;;13.50;73.67
68654;BME280;55636;51.108;13.622;2022-10-17T04:57:17;101069.78;;;13.50;73.55
68654;BME280;55636;51.108;13.622;2022-10-17T04:58:32;101067.00;;;13.50;74.00
68654;BME280;55636;51.108;13.622;2022-10-17T04:59:35;101068.09;;;13.49;74.00
68654;BME280;55636;51.108;13.622;2022-10-17T05:00:55;101079.78;;;13.52;73.95
68654;BME280;55636;51.108;13.622;2022-10-17T05:02:02;101068.38;;;13.48;73.91
68654;BME280;55636;51.108;13.622;2022-10-17T05:03:05;101064.50;;;13.49;74.24
68654;BME280;55636;51.108;13.622;2022-10-17T05:04:07;101071.97;;;13.48;74.28
68654;BME280;55636;51.108;13.622;2022-10-17T05:05:09;101071.72;;;13.50;74.22
68654;BME280;55636;51.108;13.622;2022-10-17T05:06:15;101069.78;;;13.50;74.15
68654;BME280;55636;51.108;13.622;2022-10-17T05:07:21;101069.78;;;13.50;73.96
68654;BME280;55636;51.108;13.622;2022-10-17T05:08:38;101071.72;;;13.50;74.10
68654;BME280;55636;51.108;13.622;2022-10-17T05:09:40;101068.97;;;13.50;74.18
68654;BME280;55636;51.108;13.622;2022-10-17T05:10:44;101070.59;;;13.51;74.05
68654;BME280;55636;51.108;13.622;2022-10-17T05:11:47;101075.06;;;13.52;74.19
68654;BME280;55636;51.108;13.622;2022-10-17T05:12:50;101072.56;;;13.50;73.93
68654;BME280;55636;51.108;13.622;2022-10-17T05:13:58;101074.25;;;13.52;74.16
68654;BME280;55636;51.108;13.622;2022-10-17T05:15:00;101075.06;;;13.52;73.91
68654;BME280;55636;51.108;13.622;2022-10-17T05:16:03;101078.13;;;13.50;73.95
68654;BME280;55636;51.108;13.622;2022-10-17T05:17:05;101074.25;;;13.52;74.09
68654;BME280;55636;51.108;13.622;2022-10-17T05:18:08;101076.16;;;13.51;74.27
68654;BME280;55636;51.108;13.622;2022-10-17T05:19:11;101079.53;;;13.53;73.96
68654;BME280;55636;51.108;13.622;2022-10-17T05:20:19;101083.41;;;13.52;74.26
68654;BME280;55636;51.108;13.622;2022-10-17T05:21:24;101075.34;;;13.50;74.26
68654;BME280;55636;51.108;13.622;2022-10-17T05:22:27;101085.34;;;13.52;74.33
68654;BME280;55636;51.108;13.622;2022-10-17T05:23:32;101084.25;;;13.53;74.00
68654;BME280;55636;51.108;13.622;2022-10-17T05:24:35;101081.72;;;13.51;74.41
68654;BME280;55636;51.108;13.622;2022-10-17T05:25:37;101076.16;;;13.51;74.28
68654;BME280;55636;51.108;13.622;2022-10-17T05:26:39;101079.78;;;13.52;74.41
68654;BME280;55636;51.108;13.622;2022-10-17T05:27:42;101079.78;;;13.52;74.08
68654;BME280;55636;51.108;13.622;2022-10-17T05:28:46;101082.31;;;13.53;73.99
68654;BME280;55636;51.108;13.622;2022-10-17T05:29:48;101076.44;;;13.49;74.34
68654;BME280;55636;51.108;13.622;2022-10-17T05:31:03;101081.47;;;13.53;74.43
68654;BME280;55636;51.108;13.622;2022-10-17T05:32:06;101087.25;;;13.51;74.39
68654;BME280;55636;51.108;13.622;2022-10-17T05:33:09;101080.34;;;13.54;74.26
68654;BME280;55636;51.108;13.622;2022-10-17T05:34:11;101087.03;;;13.53;74.33
68654;BME280;55636;51.108;13.622;2022-10-17T05:35:16;101079.78;;;13.52;74.43
68654;BME280;55636;51.108;13.622;2022-10-17T05:36:18;101082.56;;;13.52;74.45
68654;BME280;55636;51.108;13.622;2022-10-17T05:37:21;101080.63;;;13.52;74.47
68654;BME280;55636;51.108;13.622;2022-10-17T05:38:26;101091.72;;;13.52;74.36
68654;BME280;55636;51.108;13.622;2022-10-17T05:39:29;101085.59;;;13.50;74.56
68654;BME280;55636;51.108;13.622;2022-10-17T05:40:33;101090.03;;;13.51;74.48
68654;BME280;55636;51.108;13.622;2022-10-17T05:41:36;101089.78;;;13.53;74.42
68654;BME280;55636;51.108;13.622;2022-10-17T05:42:39;101090.63;;;13.53;74.23
68654;BME280;55636;51.108;13.622;2022-10-17T05:44:01;101093.41;;;13.53;74.44
68654;BME280;55636;51.108;13.622;2022-10-17T05:45:19;101084.25;;;13.53;74.38
68654;BME280;55636;51.108;13.622;2022-10-17T05:46:21;101092.31;;;13.54;74.27
68654;BME280;55636;51.108;13.622;2022-10-17T05:47:23;101093.41;;;13.53;74.64
68654;BME280;55636;51.108;13.622;2022-10-17T05:48:26;101089.78;;;13.53;74.49
68654;BME280;55636;51.108;13.622;2022-10-17T05:49:28;101086.75;;;13.54;74.41
68654;BME280;55636;51.108;13.622;2022-10-17T05:51:02;101096.19;;;13.53;74.64
68654;BME280;55636;51.108;13.622;2022-10-17T05:52:05;101097.00;;;13.54;74.44
68654;BME280;55636;51.108;13.622;2022-10-17T05:53:17;101095.09;;;13.54;74.54
68654;BME280;55636;51.108;13.622;2022-10-17T05:54:22;101098.41;;;13.56;74.21
68654;BME280;55636;51.108;13.622;2022-10-17T05:55:25;101102.03;;;13.57;74.41
68654;BME280;55636;51.108;13.622;2022-10-17T05:56:27;101095.63;;;13.56;74.47
68654;BME280;55636;51.108;13.622;2022-10-17T05:57:29;101098.16;;;13.58;74.16
68654;BME280;55636;51.108;13.622;2022-10-17T05:58:32;101092.59;;;13.58;74.40
68654;BME280;55636;51.108;13.622;2022-10-17T06:00:15;101109.00;;;13.59;74.49
68654;BME280;55636;51.108;13.622;2022-10-17T06:01:23;101105.38;;;13.59;74.42
68654;BME280;55636;51.108;13.622;2022-10-17T06:02:27;101105.97;;;13.61;74.29
68654;BME280;55636;51.108;13.622;2022-10-17T06:03:31;101105.69;;;13.62;74.49
68654;BME280;55636;51.108;13.622;2022-10-17T06:04:36;101109.31;;;13.63;74.48
68654;BME280;55636;51.108;13.622;2022-10-17T06:05:40;101111.84;;;13.64;74.17
68654;BME280;55636;51.108;13.622;2022-10-17T06:06:43;101110.16;;;13.63;74.26
68654;BME280;55636;51.108;13.622;2022-10-17T06:07:46;101113.75;;;13.64;74.38
68654;BME280;55636;51.108;13.622;2022-10-17T06:08:51;101112.66;;;13.65;74.51
68654;BME280;55636;51.108;13.622;2022-10-17T06:09:59;101117.13;;;13.66;74.12
68654;BME280;55636;51.108;13.622;2022-10-17T06:11:02;101120.72;;;13.66;74.35
68654;BME280;55636;51.108;13.622;2022-10-17T06:12:10;101109.63;;;13.66;74.36
68654;BME280;55636;51.108;13.622;2022-10-17T06:13:12;101120.47;;;13.68;74.14
68654;BME280;55636;51.108;13.622;2022-10-17T06:14:14;101115.16;;;13.66;74.27
68654;BME280;55636;51.108;13.622;2022-10-17T06:15:17;101112.13;;;13.68;74.50